Ventnor, United Kingdom
Current Conditions -  °F | °C
As of 6:20 PM on Thursday 30 Oct 2014 (Local Time) from EGHI Reporting Station
Few Clouds Few Clouds  
Wind Chill: 57°   Ceiling: Unl
Heat Index: 57°   Visibility: 6mi
Dew Point: 55°   Wind: 1mph
Humidity: 94%   Direction: 120°ESE
Pressure: 30.06"   Gusts: NA
Location:  50.59°N, 1.2°W
Report Text: EGHI 301820Z 12001KT 9000 FEW018 14/13 Q1018
Loading
Personal Weather Stations






























Interactive Weather Map
Tropical Storm Tracking
New forecast layout! Learn more

10-Day Weather Forecast

Advertisements
Track Severe Weather on mobile